Airfield :
LOGIN :

Register | Disclaimer

   EN    FR    IT 

 










Legend :    VFR   Marginal VFR   IFR   Intensive IFR   Very Intensive IFR
Visi :
Ceiling :
>= 8 km
>= 3000ft
5 to 8 km
1000 to 3000 ft
1500m to 5 km
500 to 1000 ft
800 to 1500m
200 to 500 ft
< 800m
< 200 ft
Symbols :   Thunderstorms  Fog  Heavy snow  Heavy precipitations  Wind > 20 kt
SIGMETs :     Misc.  Thunderstorms  Icing  Turbulence  Mountain Waves  Volcanic Ashes






- Airport Elevation : 1043 ft
- IATA code : SLD


LZSL - Sliac

CURRENT METAR :
  • 052000Z 00000KT 4000 BR OVC009 M06/M07 Q1027

EXPIRED METARs :
  • 051930Z 36002KT 4000 BR SCT009 M06/M08 Q1027
  • 051900Z 00000KT 4000 BR SCT010 M07/M09 Q1027
  • 051830Z VRB01KT 5000 BR FEW011 M07/M08 Q1027
  • 051800Z 00000KT 5000 BR FEW012 M07/M08 Q1027
  • 051730Z 00000KT 5000 BR NSC M07/M08 Q1027

TAF TAF LZSL
Valid from the 05 at 18:00 until the 06 at 03:00 UTC


051700Z 0518/0603 VRB02KT 6000 SCT011
TEMPO 0518/0521 3500 BR BKN007
TEMPO 0521/0603 1200 BCFG OVC003
PROB30
TEMPO 0521/0603 0700 FZFG OVC002



MET'MAP, your aeronautical weather chart ! - Copyright ORBIFLY December 2007 - Disclaimer

ORBIFLY MET'MAP TEAM :

Programming & Development : Alexandra Zaïnal
Concept & original design : Baudouin d'Aumeries
Assistance for programming : Marc-Olivier Méhu
Technical & hardware support : Manuel Goepfert

Contact : metmap@orbifly.com




SOURCES & CREDITS :

   NOAA